sensor_id;sensor_type;location;lat;lon;timestamp;P1;durP1;ratioP1;P2;durP2;ratioP2
44578;SDS011;37422;51.402;0.016;2022-07-23T00:01:35;10.30;;;3.70;;
44578;SDS011;37422;51.402;0.016;2022-07-23T00:04:02;14.98;;;4.28;;
44578;SDS011;37422;51.402;0.016;2022-07-23T00:06:30;5.90;;;2.65;;
44578;SDS011;37422;51.402;0.016;2022-07-23T00:08:58;11.48;;;3.70;;
44578;SDS011;37422;51.402;0.016;2022-07-23T00:11:26;6.13;;;3.47;;
44578;SDS011;37422;51.402;0.016;2022-07-23T00:13:54;11.50;;;3.42;;
44578;SDS011;37422;51.402;0.016;2022-07-23T00:16:25;9.82;;;4.03;;
44578;SDS011;37422;51.402;0.016;2022-07-23T00:18:56;13.25;;;4.63;;
44578;SDS011;37422;51.402;0.016;2022-07-23T00:21:24;10.73;;;4.03;;
44578;SDS011;37422;51.402;0.016;2022-07-23T00:23:54;10.50;;;4.07;;
44578;SDS011;37422;51.402;0.016;2022-07-23T00:26:25;6.75;;;4.15;;
44578;SDS011;37422;51.402;0.016;2022-07-23T00:28:53;9.23;;;4.20;;
44578;SDS011;37422;51.402;0.016;2022-07-23T00:31:21;5.75;;;3.40;;
44578;SDS011;37422;51.402;0.016;2022-07-23T00:33:48;14.25;;;4.93;;
44578;SDS011;37422;51.402;0.016;2022-07-23T00:36:16;13.40;;;4.50;;
44578;SDS011;37422;51.402;0.016;2022-07-23T00:38:45;8.90;;;3.45;;
44578;SDS011;37422;51.402;0.016;2022-07-23T00:41:15;7.00;;;3.38;;
44578;SDS011;37422;51.402;0.016;2022-07-23T00:43:43;11.65;;;3.78;;
44578;SDS011;37422;51.402;0.016;2022-07-23T00:46:11;7.95;;;3.72;;
44578;SDS011;37422;51.402;0.016;2022-07-23T00:48:45;15.82;;;5.20;;
44578;SDS011;37422;51.402;0.016;2022-07-23T00:51:16;11.68;;;4.72;;
44578;SDS011;37422;51.402;0.016;2022-07-23T00:53:44;13.55;;;3.60;;
44578;SDS011;37422;51.402;0.016;2022-07-23T00:56:12;13.43;;;3.92;;
44578;SDS011;37422;51.402;0.016;2022-07-23T00:58:43;11.63;;;3.50;;
44578;SDS011;37422;51.402;0.016;2022-07-23T01:01:11;12.80;;;4.57;;
44578;SDS011;37422;51.402;0.016;2022-07-23T01:03:39;10.90;;;3.65;;
44578;SDS011;37422;51.402;0.016;2022-07-23T01:06:07;8.40;;;3.78;;
44578;SDS011;37422;51.402;0.016;2022-07-23T01:08:35;11.05;;;3.78;;
44578;SDS011;37422;51.402;0.016;2022-07-23T01:11:03;11.60;;;4.07;;
44578;SDS011;37422;51.402;0.016;2022-07-23T01:13:31;11.43;;;3.83;;
44578;SDS011;37422;51.402;0.016;2022-07-23T01:15:59;10.30;;;3.95;;
44578;SDS011;37422;51.402;0.016;2022-07-23T01:18:29;6.05;;;3.83;;
44578;SDS011;37422;51.402;0.016;2022-07-23T01:20:58;14.45;;;4.30;;
44578;SDS011;37422;51.402;0.016;2022-07-23T01:23:26;8.68;;;3.38;;
44578;SDS011;37422;51.402;0.016;2022-07-23T01:25:57;8.25;;;4.38;;
44578;SDS011;37422;51.402;0.016;2022-07-23T01:28:28;11.65;;;4.45;;
44578;SDS011;37422;51.402;0.016;2022-07-23T01:30:57;8.23;;;3.42;;
44578;SDS011;37422;51.402;0.016;2022-07-23T01:33:30;10.82;;;5.50;;
44578;SDS011;37422;51.402;0.016;2022-07-23T01:36:01;12.35;;;4.30;;
44578;SDS011;37422;51.402;0.016;2022-07-23T01:38:29;10.15;;;3.83;;
44578;SDS011;37422;51.402;0.016;2022-07-23T01:40:57;8.43;;;3.50;;
44578;SDS011;37422;51.402;0.016;2022-07-23T01:43:30;14.23;;;4.35;;
44578;SDS011;37422;51.402;0.016;2022-07-23T01:45:58;11.45;;;3.95;;
44578;SDS011;37422;51.402;0.016;2022-07-23T01:48:33;11.57;;;3.38;;
44578;SDS011;37422;51.402;0.016;2022-07-23T01:51:25;13.77;;;4.50;;
44578;SDS011;37422;51.402;0.016;2022-07-23T01:54:03;9.13;;;4.65;;
44578;SDS011;37422;51.402;0.016;2022-07-23T01:56:30;12.43;;;4.18;;
44578;SDS011;37422;51.402;0.016;2022-07-23T01:58:58;9.90;;;3.97;;
44578;SDS011;37422;51.402;0.016;2022-07-23T02:01:28;17.80;;;4.07;;
44578;SDS011;37422;51.402;0.016;2022-07-23T02:03:56;9.98;;;4.43;;
44578;SDS011;37422;51.402;0.016;2022-07-23T02:08:55;11.43;;;4.70;;
44578;SDS011;37422;51.402;0.016;2022-07-23T02:11:22;8.57;;;3.72;;
44578;SDS011;37422;51.402;0.016;2022-07-23T02:13:50;9.50;;;4.00;;
44578;SDS011;37422;51.402;0.016;2022-07-23T02:16:18;9.75;;;4.47;;
44578;SDS011;37422;51.402;0.016;2022-07-23T02:18:46;6.22;;;3.15;;
44578;SDS011;37422;51.402;0.016;2022-07-23T02:21:13;14.65;;;4.30;;
44578;SDS011;37422;51.402;0.016;2022-07-23T02:23:41;10.55;;;3.70;;
44578;SDS011;37422;51.402;0.016;2022-07-23T02:26:13;7.70;;;3.70;;
44578;SDS011;37422;51.402;0.016;2022-07-23T02:28:49;8.85;;;3.72;;
44578;SDS011;37422;51.402;0.016;2022-07-23T02:31:21;15.98;;;4.65;;
44578;SDS011;37422;51.402;0.016;2022-07-23T02:33:49;6.95;;;3.78;;
44578;SDS011;37422;51.402;0.016;2022-07-23T02:36:21;9.60;;;3.47;;
44578;SDS011;37422;51.402;0.016;2022-07-23T02:38:52;8.27;;;4.10;;
44578;SDS011;37422;51.402;0.016;2022-07-23T02:41:20;8.23;;;3.65;;
44578;SDS011;37422;51.402;0.016;2022-07-23T02:43:48;11.48;;;3.95;;
44578;SDS011;37422;51.402;0.016;2022-07-23T02:46:21;10.63;;;3.88;;
44578;SDS011;37422;51.402;0.016;2022-07-23T02:48:49;6.70;;;3.42;;
44578;SDS011;37422;51.402;0.016;2022-07-23T02:51:18;10.35;;;3.50;;
44578;SDS011;37422;51.402;0.016;2022-07-23T02:53:53;11.55;;;4.32;;
44578;SDS011;37422;51.402;0.016;2022-07-23T02:56:21;8.02;;;3.88;;
44578;SDS011;37422;51.402;0.016;2022-07-23T02:58:48;7.15;;;3.10;;
44578;SDS011;37422;51.402;0.016;2022-07-23T03:01:16;9.88;;;3.53;;
44578;SDS011;37422;51.402;0.016;2022-07-23T03:03:47;9.88;;;3.83;;
44578;SDS011;37422;51.402;0.016;2022-07-23T03:06:16;12.77;;;3.50;;
44578;SDS011;37422;51.402;0.016;2022-07-23T03:08:44;7.78;;;4.38;;
44578;SDS011;37422;51.402;0.016;2022-07-23T03:11:14;10.25;;;3.70;;
44578;SDS011;37422;51.402;0.016;2022-07-23T03:13:43;10.95;;;3.55;;
44578;SDS011;37422;51.402;0.016;2022-07-23T03:16:15;7.30;;;3.40;;
44578;SDS011;37422;51.402;0.016;2022-07-23T03:18:43;10.32;;;3.92;;
44578;SDS011;37422;51.402;0.016;2022-07-23T03:21:13;7.90;;;3.80;;
44578;SDS011;37422;51.402;0.016;2022-07-23T03:23:41;12.70;;;4.53;;
44578;SDS011;37422;51.402;0.016;2022-07-23T03:26:09;9.15;;;3.25;;
44578;SDS011;37422;51.402;0.016;2022-07-23T03:28:41;10.40;;;3.58;;
44578;SDS011;37422;51.402;0.016;2022-07-23T03:31:09;10.07;;;4.03;;
44578;SDS011;37422;51.402;0.016;2022-07-23T03:33:38;12.25;;;3.65;;
44578;SDS011;37422;51.402;0.016;2022-07-23T03:36:06;9.48;;;4.55;;
44578;SDS011;37422;51.402;0.016;2022-07-23T03:38:39;6.30;;;3.47;;
44578;SDS011;37422;51.402;0.016;2022-07-23T03:41:08;8.85;;;3.88;;
44578;SDS011;37422;51.402;0.016;2022-07-23T03:43:36;11.95;;;4.10;;
44578;SDS011;37422;51.402;0.016;2022-07-23T03:46:04;11.40;;;4.53;;
44578;SDS011;37422;51.402;0.016;2022-07-23T03:48:33;10.63;;;3.50;;
44578;SDS011;37422;51.402;0.016;2022-07-23T03:51:02;9.73;;;3.85;;
44578;SDS011;37422;51.402;0.016;2022-07-23T03:53:33;7.97;;;3.40;;
44578;SDS011;37422;51.402;0.016;2022-07-23T03:56:01;5.78;;;3.38;;
44578;SDS011;37422;51.402;0.016;2022-07-23T03:58:30;14.00;;;3.70;;
44578;SDS011;37422;51.402;0.016;2022-07-23T04:01:04;7.68;;;3.80;;
44578;SDS011;37422;51.402;0.016;2022-07-23T04:03:33;13.13;;;4.50;;
44578;SDS011;37422;51.402;0.016;2022-07-23T04:06:01;10.20;;;4.20;;
44578;SDS011;37422;51.402;0.016;2022-07-23T04:08:30;12.60;;;5.22;;
44578;SDS011;37422;51.402;0.016;2022-07-23T04:11:01;13.18;;;3.58;;
44578;SDS011;37422;51.402;0.016;2022-07-23T04:13:33;12.20;;;3.92;;
44578;SDS011;37422;51.402;0.016;2022-07-23T04:16:03;9.52;;;3.63;;
44578;SDS011;37422;51.402;0.016;2022-07-23T04:18:31;9.98;;;3.92;;
44578;SDS011;37422;51.402;0.016;2022-07-23T04:21:09;9.40;;;4.78;;
44578;SDS011;37422;51.402;0.016;2022-07-23T04:23:38;8.63;;;3.55;;
44578;SDS011;37422;51.402;0.016;2022-07-23T04:26:07;9.48;;;4.35;;
44578;SDS011;37422;51.402;0.016;2022-07-23T04:28:41;10.88;;;4.43;;
44578;SDS011;37422;51.402;0.016;2022-07-23T04:31:10;11.32;;;4.22;;
44578;SDS011;37422;51.402;0.016;2022-07-23T04:33:41;11.50;;;3.83;;
44578;SDS011;37422;51.402;0.016;2022-07-23T04:36:12;6.15;;;3.42;;
44578;SDS011;37422;51.402;0.016;2022-07-23T04:38:44;15.73;;;4.50;;
44578;SDS011;37422;51.402;0.016;2022-07-23T04:41:22;9.45;;;4.28;;
44578;SDS011;37422;51.402;0.016;2022-07-23T04:43:49;11.68;;;4.07;;
44578;SDS011;37422;51.402;0.016;2022-07-23T04:46:18;11.13;;;4.47;;
44578;SDS011;37422;51.402;0.016;2022-07-23T04:48:48;10.32;;;4.57;;
44578;SDS011;37422;51.402;0.016;2022-07-23T04:51:20;10.82;;;4.45;;
44578;SDS011;37422;51.402;0.016;2022-07-23T04:53:48;12.35;;;4.43;;
44578;SDS011;37422;51.402;0.016;2022-07-23T04:56:16;13.27;;;4.60;;
44578;SDS011;37422;51.402;0.016;2022-07-23T04:58:45;14.90;;;4.57;;
44578;SDS011;37422;51.402;0.016;2022-07-23T05:01:13;10.88;;;4.65;;
44578;SDS011;37422;51.402;0.016;2022-07-23T05:03:46;18.92;;;5.65;;
44578;SDS011;37422;51.402;0.016;2022-07-23T05:06:16;11.30;;;5.67;;
44578;SDS011;37422;51.402;0.016;2022-07-23T05:08:44;8.77;;;4.90;;
44578;SDS011;37422;51.402;0.016;2022-07-23T05:11:12;12.65;;;5.30;;
44578;SDS011;37422;51.402;0.016;2022-07-23T05:13:40;13.48;;;5.45;;
44578;SDS011;37422;51.402;0.016;2022-07-23T05:16:11;9.55;;;5.03;;
44578;SDS011;37422;51.402;0.016;2022-07-23T05:18:42;15.60;;;5.03;;
44578;SDS011;37422;51.402;0.016;2022-07-23T05:21:12;13.13;;;5.43;;
44578;SDS011;37422;51.402;0.016;2022-07-23T05:23:45;14.02;;;6.25;;
44578;SDS011;37422;51.402;0.016;2022-07-23T05:26:13;18.08;;;6.00;;
44578;SDS011;37422;51.402;0.016;2022-07-23T05:28:43;10.55;;;5.45;;
44578;SDS011;37422;51.402;0.016;2022-07-23T05:31:22;15.65;;;5.50;;
44578;SDS011;37422;51.402;0.016;2022-07-23T05:33:51;11.65;;;5.65;;
44578;SDS011;37422;51.402;0.016;2022-07-23T05:36:21;13.65;;;5.45;;
44578;SDS011;37422;51.402;0.016;2022-07-23T05:38:53;12.45;;;5.63;;
44578;SDS011;37422;51.402;0.016;2022-07-23T05:41:22;9.75;;;4.90;;
44578;SDS011;37422;51.402;0.016;2022-07-23T05:43:50;13.13;;;5.13;;
44578;SDS011;37422;51.402;0.016;2022-07-23T05:46:19;12.05;;;4.82;;
44578;SDS011;37422;51.402;0.016;2022-07-23T05:48:55;12.13;;;5.25;;
44578;SDS011;37422;51.402;0.016;2022-07-23T05:51:42;12.73;;;5.22;;
44578;SDS011;37422;51.402;0.016;2022-07-23T05:54:24;11.95;;;4.82;;
44578;SDS011;37422;51.402;0.016;2022-07-23T05:56:53;13.90;;;5.72;;
44578;SDS011;37422;51.402;0.016;2022-07-23T05:59:23;7.35;;;3.85;;
44578;SDS011;37422;51.402;0.016;2022-07-23T06:01:56;9.02;;;4.43;;
44578;SDS011;37422;51.402;0.016;2022-07-23T06:04:24;15.18;;;4.22;;
44578;SDS011;37422;51.402;0.016;2022-07-23T06:07:11;10.32;;;4.78;;
44578;SDS011;37422;51.402;0.016;2022-07-23T06:09:42;12.15;;;4.75;;
44578;SDS011;37422;51.402;0.016;2022-07-23T06:12:12;8.33;;;4.20;;
44578;SDS011;37422;51.402;0.016;2022-07-23T06:14:45;10.57;;;4.57;;
44578;SDS011;37422;51.402;0.016;2022-07-23T06:17:16;14.30;;;4.80;;
44578;SDS011;37422;51.402;0.016;2022-07-23T06:19:44;11.68;;;5.40;;
44578;SDS011;37422;51.402;0.016;2022-07-23T06:22:15;16.10;;;4.90;;
44578;SDS011;37422;51.402;0.016;2022-07-23T06:24:44;11.82;;;4.90;;
44578;SDS011;37422;51.402;0.016;2022-07-23T06:27:12;9.60;;;4.40;;
44578;SDS011;37422;51.402;0.016;2022-07-23T06:29:43;7.97;;;4.40;;
44578;SDS011;37422;51.402;0.016;2022-07-23T06:32:10;9.63;;;4.82;;
44578;SDS011;37422;51.402;0.016;2022-07-23T06:37:14;16.63;;;5.00;;
44578;SDS011;37422;51.402;0.016;2022-07-23T06:39:47;10.50;;;4.25;;
44578;SDS011;37422;51.402;0.016;2022-07-23T06:42:15;13.30;;;4.43;;
44578;SDS011;37422;51.402;0.016;2022-07-23T06:44:45;11.25;;;4.40;;
44578;SDS011;37422;51.402;0.016;2022-07-23T06:47:16;12.13;;;4.68;;
44578;SDS011;37422;51.402;0.016;2022-07-23T06:49:44;9.77;;;4.15;;
44578;SDS011;37422;51.402;0.016;2022-07-23T06:52:18;7.28;;;3.60;;
44578;SDS011;37422;51.402;0.016;2022-07-23T06:54:46;13.63;;;4.50;;
44578;SDS011;37422;51.402;0.016;2022-07-23T06:57:17;9.77;;;4.53;;
44578;SDS011;37422;51.402;0.016;2022-07-23T06:59:45;12.20;;;4.38;;
44578;SDS011;37422;51.402;0.016;2022-07-23T07:02:18;14.38;;;4.22;;
44578;SDS011;37422;51.402;0.016;2022-07-23T07:04:47;12.05;;;3.88;;
44578;SDS011;37422;51.402;0.016;2022-07-23T07:07:15;9.07;;;3.55;;
44578;SDS011;37422;51.402;0.016;2022-07-23T07:09:43;8.98;;;4.28;;
44578;SDS011;37422;51.402;0.016;2022-07-23T07:12:16;11.95;;;3.83;;
44578;SDS011;37422;51.402;0.016;2022-07-23T07:14:44;8.48;;;3.33;;
44578;SDS011;37422;51.402;0.016;2022-07-23T07:17:12;10.68;;;4.45;;
44578;SDS011;37422;51.402;0.016;2022-07-23T07:19:41;6.38;;;3.92;;
44578;SDS011;37422;51.402;0.016;2022-07-23T07:22:09;13.55;;;4.85;;
44578;SDS011;37422;51.402;0.016;2022-07-23T07:24:38;11.63;;;4.72;;
44578;SDS011;37422;51.402;0.016;2022-07-23T07:27:15;9.57;;;4.30;;
44578;SDS011;37422;51.402;0.016;2022-07-23T07:29:52;10.52;;;4.03;;
44578;SDS011;37422;51.402;0.016;2022-07-23T07:32:27;11.38;;;4.57;;
44578;SDS011;37422;51.402;0.016;2022-07-23T07:35:18;11.18;;;4.95;;
44578;SDS011;37422;51.402;0.016;2022-07-23T07:37:45;10.90;;;3.60;;
44578;SDS011;37422;51.402;0.016;2022-07-23T07:40:14;9.30;;;4.05;;
44578;SDS011;37422;51.402;0.016;2022-07-23T07:42:46;10.98;;;3.55;;
44578;SDS011;37422;51.402;0.016;2022-07-23T07:45:19;7.28;;;3.30;;
44578;SDS011;37422;51.402;0.016;2022-07-23T07:47:48;13.13;;;4.07;;
44578;SDS011;37422;51.402;0.016;2022-07-23T07:50:16;9.10;;;4.00;;
44578;SDS011;37422;51.402;0.016;2022-07-23T07:52:44;9.95;;;4.35;;
44578;SDS011;37422;51.402;0.016;2022-07-23T07:55:12;12.63;;;3.85;;
44578;SDS011;37422;51.402;0.016;2022-07-23T07:57:42;11.32;;;3.92;;
44578;SDS011;37422;51.402;0.016;2022-07-23T08:00:16;9.98;;;3.60;;
44578;SDS011;37422;51.402;0.016;2022-07-23T08:02:44;9.30;;;4.07;;
44578;SDS011;37422;51.402;0.016;2022-07-23T08:05:14;12.20;;;3.67;;
44578;SDS011;37422;51.402;0.016;2022-07-23T08:07:55;6.88;;;3.08;;
44578;SDS011;37422;51.402;0.016;2022-07-23T08:10:25;7.47;;;3.25;;
44578;SDS011;37422;51.402;0.016;2022-07-23T08:12:54;10.55;;;3.65;;
44578;SDS011;37422;51.402;0.016;2022-07-23T08:15:26;9.60;;;3.08;;
44578;SDS011;37422;51.402;0.016;2022-07-23T08:20:23;10.38;;;3.42;;
44578;SDS011;37422;51.402;0.016;2022-07-23T08:25:26;7.05;;;3.13;;
44578;SDS011;37422;51.402;0.016;2022-07-23T08:28:06;7.97;;;3.42;;
44578;SDS011;37422;51.402;0.016;2022-07-23T08:30:39;10.38;;;2.85;;
44578;SDS011;37422;51.402;0.016;2022-07-23T08:33:10;10.68;;;2.65;;
44578;SDS011;37422;51.402;0.016;2022-07-23T08:36:00;11.02;;;3.47;;
44578;SDS011;37422;51.402;0.016;2022-07-23T08:38:31;10.60;;;4.72;;
44578;SDS011;37422;51.402;0.016;2022-07-23T08:41:18;8.80;;;3.03;;
44578;SDS011;37422;51.402;0.016;2022-07-23T08:43:46;7.90;;;3.25;;
44578;SDS011;37422;51.402;0.016;2022-07-23T08:46:14;8.50;;;3.47;;
44578;SDS011;37422;51.402;0.016;2022-07-23T08:48:46;9.70;;;3.47;;
44578;SDS011;37422;51.402;0.016;2022-07-23T08:51:16;7.38;;;3.28;;
44578;SDS011;37422;51.402;0.016;2022-07-23T08:53:49;4.68;;;3.03;;
44578;SDS011;37422;51.402;0.016;2022-07-23T08:56:17;6.68;;;3.08;;
44578;SDS011;37422;51.402;0.016;2022-07-23T08:58:44;8.05;;;3.00;;
44578;SDS011;37422;51.402;0.016;2022-07-23T09:01:12;10.10;;;3.67;;
44578;SDS011;37422;51.402;0.016;2022-07-23T09:03:41;7.60;;;3.30;;
44578;SDS011;37422;51.402;0.016;2022-07-23T09:06:12;7.25;;;2.80;;
44578;SDS011;37422;51.402;0.016;2022-07-23T09:08:40;10.52;;;3.35;;
44578;SDS011;37422;51.402;0.016;2022-07-23T09:11:10;7.70;;;2.90;;
44578;SDS011;37422;51.402;0.016;2022-07-23T09:13:51;7.47;;;3.33;;
44578;SDS011;37422;51.402;0.016;2022-07-23T09:16:24;12.07;;;3.60;;
44578;SDS011;37422;51.402;0.016;2022-07-23T09:19:02;8.00;;;3.03;;
44578;SDS011;37422;51.402;0.016;2022-07-23T09:21:31;6.28;;;2.53;;
44578;SDS011;37422;51.402;0.016;2022-07-23T09:24:04;7.72;;;3.15;;
44578;SDS011;37422;51.402;0.016;2022-07-23T09:26:44;8.98;;;2.80;;
44578;SDS011;37422;51.402;0.016;2022-07-23T09:29:24;4.78;;;2.60;;
44578;SDS011;37422;51.402;0.016;2022-07-23T09:31:57;8.07;;;2.60;;
44578;SDS011;37422;51.402;0.016;2022-07-23T09:34:27;9.07;;;2.92;;
44578;SDS011;37422;51.402;0.016;2022-07-23T09:36:58;4.47;;;2.28;;
44578;SDS011;37422;51.402;0.016;2022-07-23T09:39:40;4.20;;;2.42;;
44578;SDS011;37422;51.402;0.016;2022-07-23T09:42:19;6.88;;;2.70;;
44578;SDS011;37422;51.402;0.016;2022-07-23T09:44:50;6.53;;;2.65;;
44578;SDS011;37422;51.402;0.016;2022-07-23T09:52:47;6.90;;;2.38;;
44578;SDS011;37422;51.402;0.016;2022-07-23T09:55:16;5.35;;;2.38;;
44578;SDS011;37422;51.402;0.016;2022-07-23T09:57:45;8.57;;;2.78;;
44578;SDS011;37422;51.402;0.016;2022-07-23T10:00:32;5.70;;;2.22;;
44578;SDS011;37422;51.402;0.016;2022-07-23T10:03:00;6.43;;;2.65;;
44578;SDS011;37422;51.402;0.016;2022-07-23T10:05:30;4.38;;;2.13;;
44578;SDS011;37422;51.402;0.016;2022-07-23T10:08:01;4.25;;;2.60;;
44578;SDS011;37422;51.402;0.016;2022-07-23T10:10:48;7.55;;;2.40;;
44578;SDS011;37422;51.402;0.016;2022-07-23T10:13:37;6.97;;;2.42;;
44578;SDS011;37422;51.402;0.016;2022-07-23T10:16:24;5.88;;;2.95;;
44578;SDS011;37422;51.402;0.016;2022-07-23T10:18:53;7.75;;;2.95;;
44578;SDS011;37422;51.402;0.016;2022-07-23T10:21:27;7.03;;;2.20;;
44578;SDS011;37422;51.402;0.016;2022-07-23T10:24:10;5.38;;;2.22;;
44578;SDS011;37422;51.402;0.016;2022-07-23T10:29:47;5.75;;;2.25;;
44578;SDS011;37422;51.402;0.016;2022-07-23T10:32:38;4.72;;;1.98;;
44578;SDS011;37422;51.402;0.016;2022-07-23T10:38:02;4.60;;;1.80;;
44578;SDS011;37422;51.402;0.016;2022-07-23T10:40:58;3.25;;;1.77;;
44578;SDS011;37422;51.402;0.016;2022-07-23T10:43:31;4.47;;;1.65;;
44578;SDS011;37422;51.402;0.016;2022-07-23T10:57:25;2.38;;;1.85;;
44578;SDS011;37422;51.402;0.016;2022-07-23T11:02:29;5.65;;;2.17;;
44578;SDS011;37422;51.402;0.016;2022-07-23T11:05:03;6.55;;;2.00;;
44578;SDS011;37422;51.402;0.016;2022-07-23T11:07:34;2.95;;;1.90;;
44578;SDS011;37422;51.402;0.016;2022-07-23T11:10:03;2.42;;;1.60;;
44578;SDS011;37422;51.402;0.016;2022-07-23T11:12:31;5.13;;;1.92;;
44578;SDS011;37422;51.402;0.016;2022-07-23T11:15:06;4.90;;;1.67;;
44578;SDS011;37422;51.402;0.016;2022-07-23T11:20:16;4.97;;;2.08;;
44578;SDS011;37422;51.402;0.016;2022-07-23T11:22:47;5.40;;;2.28;;
44578;SDS011;37422;51.402;0.016;2022-07-23T11:28:14;4.90;;;1.70;;
44578;SDS011;37422;51.402;0.016;2022-07-23T11:30:47;5.25;;;1.58;;
44578;SDS011;37422;51.402;0.016;2022-07-23T11:33:16;4.68;;;1.73;;
44578;SDS011;37422;51.402;0.016;2022-07-23T11:36:09;4.40;;;1.63;;
44578;SDS011;37422;51.402;0.016;2022-07-23T11:38:33;4.57;;;1.77;;
44578;SDS011;37422;51.402;0.016;2022-07-23T11:41:02;6.28;;;1.92;;
44578;SDS011;37422;51.402;0.016;2022-07-23T11:43:30;5.40;;;2.40;;
44578;SDS011;37422;51.402;0.016;2022-07-23T11:46:00;4.40;;;2.03;;
44578;SDS011;37422;51.402;0.016;2022-07-23T11:48:29;4.50;;;1.65;;
44578;SDS011;37422;51.402;0.016;2022-07-23T11:51:02;4.82;;;1.77;;
44578;SDS011;37422;51.402;0.016;2022-07-23T11:53:31;4.47;;;1.65;;
44578;SDS011;37422;51.402;0.016;2022-07-23T11:56:08;3.22;;;2.00;;
44578;SDS011;37422;51.402;0.016;2022-07-23T11:58:40;3.70;;;1.60;;
44578;SDS011;37422;51.402;0.016;2022-07-23T12:01:26;4.65;;;2.00;;
44578;SDS011;37422;51.402;0.016;2022-07-23T12:03:55;6.77;;;1.70;;
44578;SDS011;37422;51.402;0.016;2022-07-23T12:06:31;7.50;;;3.50;;
44578;SDS011;37422;51.402;0.016;2022-07-23T12:09:08;8.07;;;3.37;;
44578;SDS011;37422;51.402;0.016;2022-07-23T12:11:56;9.35;;;4.07;;
44578;SDS011;37422;51.402;0.016;2022-07-23T12:14:25;5.22;;;2.72;;
44578;SDS011;37422;51.402;0.016;2022-07-23T12:17:20;5.40;;;3.05;;
44578;SDS011;37422;51.402;0.016;2022-07-23T12:19:55;8.93;;;2.10;;
44578;SDS011;37422;51.402;0.016;2022-07-23T12:22:25;4.72;;;2.00;;
44578;SDS011;37422;51.402;0.016;2022-07-23T12:25:02;4.28;;;1.90;;
44578;SDS011;37422;51.402;0.016;2022-07-23T12:27:34;4.72;;;2.00;;
44578;SDS011;37422;51.402;0.016;2022-07-23T12:30:27;7.30;;;2.30;;
44578;SDS011;37422;51.402;0.016;2022-07-23T12:33:04;7.95;;;2.10;;
44578;SDS011;37422;51.402;0.016;2022-07-23T12:35:34;5.45;;;1.90;;
44578;SDS011;37422;51.402;0.016;2022-07-23T12:38:21;3.08;;;1.65;;
44578;SDS011;37422;51.402;0.016;2022-07-23T12:41:02;4.78;;;1.67;;
44578;SDS011;37422;51.402;0.016;2022-07-23T12:43:39;4.82;;;1.40;;
44578;SDS011;37422;51.402;0.016;2022-07-23T12:46:15;3.88;;;1.80;;
44578;SDS011;37422;51.402;0.016;2022-07-23T12:54:09;3.25;;;1.67;;
44578;SDS011;37422;51.402;0.016;2022-07-23T12:56:38;3.35;;;1.65;;
44578;SDS011;37422;51.402;0.016;2022-07-23T12:59:16;5.63;;;1.60;;
44578;SDS011;37422;51.402;0.016;2022-07-23T13:01:45;7.80;;;1.98;;
44578;SDS011;37422;51.402;0.016;2022-07-23T13:04:24;2.90;;;1.60;;
44578;SDS011;37422;51.402;0.016;2022-07-23T13:06:53;2.13;;;1.55;;
44578;SDS011;37422;51.402;0.016;2022-07-23T13:09:27;3.53;;;2.22;;
44578;SDS011;37422;51.402;0.016;2022-07-23T13:11:59;4.45;;;1.50;;
44578;SDS011;37422;51.402;0.016;2022-07-23T13:14:27;4.20;;;1.80;;
44578;SDS011;37422;51.402;0.016;2022-07-23T13:16:56;5.72;;;1.88;;
44578;SDS011;37422;51.402;0.016;2022-07-23T13:21:54;3.40;;;1.50;;
44578;SDS011;37422;51.402;0.016;2022-07-23T13:24:22;3.63;;;1.40;;
44578;SDS011;37422;51.402;0.016;2022-07-23T13:26:50;4.25;;;1.65;;
44578;SDS011;37422;51.402;0.016;2022-07-23T13:29:20;2.45;;;1.38;;
44578;SDS011;37422;51.402;0.016;2022-07-23T13:31:49;2.22;;;1.30;;
44578;SDS011;37422;51.402;0.016;2022-07-23T13:34:17;2.35;;;1.58;;
44578;SDS011;37422;51.402;0.016;2022-07-23T13:36:47;3.50;;;1.67;;
44578;SDS011;37422;51.402;0.016;2022-07-23T13:39:15;2.33;;;1.58;;
44578;SDS011;37422;51.402;0.016;2022-07-23T13:41:43;6.25;;;1.58;;
44578;SDS011;37422;51.402;0.016;2022-07-23T13:44:19;6.00;;;1.42;;
44578;SDS011;37422;51.402;0.016;2022-07-23T13:46:49;4.88;;;1.60;;
44578;SDS011;37422;51.402;0.016;2022-07-23T13:49:17;3.55;;;1.60;;
44578;SDS011;37422;51.402;0.016;2022-07-23T13:51:45;2.92;;;1.40;;
44578;SDS011;37422;51.402;0.016;2022-07-23T13:54:13;3.47;;;2.03;;
44578;SDS011;37422;51.402;0.016;2022-07-23T13:56:41;6.50;;;2.08;;
44578;SDS011;37422;51.402;0.016;2022-07-23T13:59:09;4.05;;;2.15;;
44578;SDS011;37422;51.402;0.016;2022-07-23T14:01:38;3.80;;;1.73;;
44578;SDS011;37422;51.402;0.016;2022-07-23T14:04:26;5.22;;;1.90;;
44578;SDS011;37422;51.402;0.016;2022-07-23T14:06:53;2.60;;;1.52;;
44578;SDS011;37422;51.402;0.016;2022-07-23T14:09:21;5.07;;;1.85;;
44578;SDS011;37422;51.402;0.016;2022-07-23T14:11:52;2.75;;;1.60;;
44578;SDS011;37422;51.402;0.016;2022-07-23T14:14:20;3.35;;;1.30;;
44578;SDS011;37422;51.402;0.016;2022-07-23T14:16:48;8.82;;;2.35;;
44578;SDS011;37422;51.402;0.016;2022-07-23T14:19:17;5.85;;;2.03;;
44578;SDS011;37422;51.402;0.016;2022-07-23T14:21:45;4.72;;;1.90;;
44578;SDS011;37422;51.402;0.016;2022-07-23T14:24:13;2.28;;;1.75;;
44578;SDS011;37422;51.402;0.016;2022-07-23T14:26:44;5.28;;;2.00;;
44578;SDS011;37422;51.402;0.016;2022-07-23T14:29:13;9.45;;;2.05;;
44578;SDS011;37422;51.402;0.016;2022-07-23T14:31:41;5.30;;;2.30;;
44578;SDS011;37422;51.402;0.016;2022-07-23T14:34:09;6.05;;;1.83;;
44578;SDS011;37422;51.402;0.016;2022-07-23T14:36:38;2.57;;;1.83;;
44578;SDS011;37422;51.402;0.016;2022-07-23T14:39:07;5.97;;;1.90;;
44578;SDS011;37422;51.402;0.016;2022-07-23T14:41:37;5.50;;;2.50;;
44578;SDS011;37422;51.402;0.016;2022-07-23T14:44:05;4.55;;;1.92;;
44578;SDS011;37422;51.402;0.016;2022-07-23T14:46:36;4.53;;;2.05;;
44578;SDS011;37422;51.402;0.016;2022-07-23T14:49:04;2.20;;;1.65;;
44578;SDS011;37422;51.402;0.016;2022-07-23T14:51:33;5.97;;;2.28;;
44578;SDS011;37422;51.402;0.016;2022-07-23T14:54:00;3.65;;;2.00;;
44578;SDS011;37422;51.402;0.016;2022-07-23T14:56:28;5.38;;;2.20;;
44578;SDS011;37422;51.402;0.016;2022-07-23T14:58:56;4.50;;;1.77;;
44578;SDS011;37422;51.402;0.016;2022-07-23T15:01:25;7.80;;;1.92;;
44578;SDS011;37422;51.402;0.016;2022-07-23T15:06:29;6.70;;;1.92;;
44578;SDS011;37422;51.402;0.016;2022-07-23T15:08:57;7.82;;;1.95;;
44578;SDS011;37422;51.402;0.016;2022-07-23T15:11:30;8.50;;;1.88;;
44578;SDS011;37422;51.402;0.016;2022-07-23T15:14:00;6.13;;;2.28;;
44578;SDS011;37422;51.402;0.016;2022-07-23T15:16:28;4.93;;;1.83;;
44578;SDS011;37422;51.402;0.016;2022-07-23T15:18:56;8.25;;;2.20;;
44578;SDS011;37422;51.402;0.016;2022-07-23T15:21:24;5.10;;;2.33;;
44578;SDS011;37422;51.402;0.016;2022-07-23T15:23:52;9.60;;;2.00;;
44578;SDS011;37422;51.402;0.016;2022-07-23T15:26:22;4.83;;;2.03;;
44578;SDS011;37422;51.402;0.016;2022-07-23T15:28:50;6.18;;;1.95;;
44578;SDS011;37422;51.402;0.016;2022-07-23T15:31:17;3.97;;;2.00;;
44578;SDS011;37422;51.402;0.016;2022-07-23T15:33:45;3.97;;;2.20;;
44578;SDS011;37422;51.402;0.016;2022-07-23T15:36:17;4.10;;;1.83;;
44578;SDS011;37422;51.402;0.016;2022-07-23T15:38:46;5.53;;;1.90;;
44578;SDS011;37422;51.402;0.016;2022-07-23T15:41:15;4.68;;;2.00;;
44578;SDS011;37422;51.402;0.016;2022-07-23T15:43:42;5.20;;;2.17;;
44578;SDS011;37422;51.402;0.016;2022-07-23T15:46:12;4.88;;;2.00;;
44578;SDS011;37422;51.402;0.016;2022-07-23T15:48:40;5.30;;;2.30;;
44578;SDS011;37422;51.402;0.016;2022-07-23T15:51:08;4.90;;;2.10;;
44578;SDS011;37422;51.402;0.016;2022-07-23T15:53:36;2.92;;;2.10;;
44578;SDS011;37422;51.402;0.016;2022-07-23T15:56:05;2.05;;;1.85;;
44578;SDS011;37422;51.402;0.016;2022-07-23T15:58:41;5.57;;;2.03;;